createdAt,value
2022-09-28T00:01:16.150Z,99.90
2022-09-28T00:03:50.517Z,99.90
2022-09-28T00:06:25.548Z,99.90
2022-09-28T00:08:59.265Z,99.90
2022-09-28T00:11:33.458Z,99.90
2022-09-28T00:14:08.409Z,99.90
2022-09-28T00:16:43.535Z,99.90
2022-09-28T00:19:17.373Z,99.90
2022-09-28T00:21:50.782Z,99.90
2022-09-28T00:24:27.570Z,99.90
2022-09-28T00:27:02.569Z,99.90
2022-09-28T00:29:38.477Z,99.90
2022-09-28T00:32:13.353Z,99.90
2022-09-28T00:34:46.961Z,99.90
2022-09-28T00:37:20.920Z,99.90
2022-09-28T00:39:54.305Z,99.90
2022-09-28T00:42:27.902Z,99.90
2022-09-28T00:45:02.731Z,99.90
2022-09-28T00:47:42.557Z,99.90
2022-09-28T00:50:20.028Z,99.90
2022-09-28T00:52:55.493Z,99.90
2022-09-28T00:55:32.890Z,99.90
2022-09-28T00:58:07.601Z,99.90
2022-09-28T01:00:42.702Z,99.90
2022-09-28T01:03:17.177Z,99.90
2022-09-28T01:05:51.772Z,99.90
2022-09-28T01:08:25.948Z,99.90
2022-09-28T01:11:00.336Z,99.90
2022-09-28T01:13:34.812Z,99.90
2022-09-28T01:16:12.881Z,99.90
2022-09-28T01:18:54.533Z,99.90
2022-09-28T01:21:28.341Z,99.90
2022-09-28T01:24:09.677Z,99.90
2022-09-28T01:26:53.062Z,99.90
2022-09-28T01:29:32.128Z,99.90
2022-09-28T01:32:11.811Z,99.90
2022-09-28T01:34:48.735Z,99.90
2022-09-28T01:37:23.147Z,99.90
2022-09-28T01:39:57.376Z,99.90
2022-09-28T01:42:34.221Z,99.90
2022-09-28T01:45:11.958Z,99.90
2022-09-28T01:47:46.625Z,99.90
2022-09-28T01:50:23.382Z,99.90
2022-09-28T01:53:00.555Z,99.90
2022-09-28T01:55:35.497Z,99.90
2022-09-28T01:58:13.532Z,99.90
2022-09-28T02:00:49.725Z,99.90
2022-09-28T02:03:25.644Z,99.90
2022-09-28T02:06:09.422Z,99.90
2022-09-28T02:08:48.359Z,99.90
2022-09-28T02:11:22.416Z,99.90
2022-09-28T02:14:02.292Z,99.90
2022-09-28T02:16:37.723Z,99.90
2022-09-28T02:19:12.569Z,99.90
2022-09-28T02:21:50.397Z,99.90
2022-09-28T02:24:25.462Z,99.90
2022-09-28T02:27:00.938Z,99.90
2022-09-28T02:29:40.710Z,99.90
2022-09-28T02:32:14.167Z,99.90
2022-09-28T02:34:47.569Z,99.90
2022-09-28T02:37:20.865Z,99.90
2022-09-28T02:39:54.266Z,99.90
2022-09-28T02:42:29.766Z,99.90
2022-09-28T02:45:13.526Z,99.90
2022-09-28T02:47:55.533Z,99.90
2022-09-28T02:50:36.946Z,99.90
2022-09-28T02:53:26.643Z,99.90
2022-09-28T02:56:07.851Z,99.90
2022-09-28T02:58:47.815Z,99.90
2022-09-28T03:01:25.550Z,99.90
2022-09-28T03:04:01.372Z,99.90
2022-09-28T03:06:38.660Z,99.90
2022-09-28T03:09:16.226Z,99.90
2022-09-28T03:11:52.326Z,99.90
2022-09-28T03:14:25.960Z,99.90
2022-09-28T03:17:04.224Z,99.90
2022-09-28T03:19:37.654Z,99.90
2022-09-28T03:22:11.012Z,99.90
2022-09-28T03:24:44.303Z,99.90
2022-09-28T03:27:17.538Z,99.90
2022-09-28T03:29:50.982Z,99.90
2022-09-28T03:32:26.259Z,99.90
2022-09-28T03:34:59.568Z,99.90
2022-09-28T03:37:33.089Z,99.90
2022-09-28T03:40:06.973Z,99.90
2022-09-28T03:42:40.713Z,99.90
2022-09-28T03:45:14.080Z,99.90
2022-09-28T03:47:49.255Z,99.90
2022-09-28T03:50:24.859Z,99.90
2022-09-28T03:53:02.849Z,99.90
2022-09-28T03:55:36.054Z,99.90
2022-09-28T03:58:09.408Z,99.90
2022-09-28T04:00:42.732Z,99.90
2022-09-28T04:03:17.642Z,99.90
2022-09-28T04:05:51.451Z,99.90
2022-09-28T04:08:24.891Z,99.90
2022-09-28T04:10:58.589Z,99.90
2022-09-28T04:13:32.214Z,99.90
2022-09-28T04:16:05.675Z,99.90
2022-09-28T04:18:42.462Z,99.90
2022-09-28T04:21:34.612Z,99.90
2022-09-28T04:24:14.490Z,99.90
2022-09-28T04:26:48.065Z,99.90
2022-09-28T04:29:21.064Z,99.90
2022-09-28T04:31:58.380Z,99.90
2022-09-28T04:34:44.644Z,99.90
2022-09-28T04:37:18.455Z,99.90
2022-09-28T04:39:51.720Z,99.90
2022-09-28T04:42:25.998Z,99.90
2022-09-28T04:45:00.968Z,99.90
2022-09-28T04:47:34.443Z,99.90
2022-09-28T04:50:27.385Z,99.90
2022-09-28T04:53:18.405Z,99.90
2022-09-28T04:55:58.881Z,99.90
2022-09-28T04:58:32.478Z,99.90
2022-09-28T05:01:07.004Z,99.90
2022-09-28T05:04:06.613Z,99.90
2022-09-28T05:06:51.486Z,99.90
2022-09-28T05:09:24.936Z,99.90
2022-09-28T05:11:58.565Z,99.90
2022-09-28T05:14:32.182Z,99.90
2022-09-28T05:17:05.516Z,99.90
2022-09-28T05:20:00.756Z,99.90
2022-09-28T05:22:35.721Z,99.90
2022-09-28T05:25:09.744Z,99.90
2022-09-28T05:27:56.259Z,99.90
2022-09-28T05:30:41.169Z,99.90
2022-09-28T05:33:31.611Z,99.90
2022-09-28T05:36:16.459Z,99.90
2022-09-28T05:38:51.236Z,99.90
2022-09-28T05:41:25.286Z,99.90
2022-09-28T05:43:59.058Z,99.90
2022-09-28T05:46:32.384Z,99.90
2022-09-28T05:49:07.499Z,99.90
2022-09-28T05:51:40.768Z,99.90
2022-09-28T05:54:19.240Z,99.90
2022-09-28T05:56:53.462Z,99.90
2022-09-28T05:59:26.737Z,99.90
2022-09-28T06:02:00.238Z,99.90
2022-09-28T06:04:33.945Z,99.90
2022-09-28T06:07:07.187Z,99.90
2022-09-28T06:09:42.559Z,99.90
2022-09-28T06:12:16.545Z,99.90
2022-09-28T06:14:53.572Z,99.90
2022-09-28T06:17:28.225Z,99.90
2022-09-28T06:20:21.428Z,99.90
2022-09-28T06:23:03.060Z,99.90
2022-09-28T06:25:37.955Z,99.90
2022-09-28T06:28:12.145Z,99.90
2022-09-28T06:30:48.308Z,99.90
2022-09-28T06:33:25.780Z,99.90
2022-09-28T06:35:59.941Z,99.90
2022-09-28T06:38:33.431Z,99.90
2022-09-28T06:41:08.157Z,99.90
2022-09-28T06:43:41.563Z,99.90
2022-09-28T06:46:33.211Z,99.90
2022-09-28T06:49:24.954Z,99.90
2022-09-28T06:52:18.536Z,99.90
2022-09-28T06:55:10.583Z,99.90
2022-09-28T06:58:00.206Z,99.90
2022-09-28T07:00:34.527Z,99.90
2022-09-28T07:03:09.253Z,99.90
2022-09-28T07:06:02.256Z,99.90
2022-09-28T07:09:03.110Z,99.90
2022-09-28T07:12:17.966Z,99.90
2022-09-28T07:14:59.601Z,99.90
2022-09-28T07:17:40.466Z,99.90
2022-09-28T07:20:20.842Z,99.90
2022-09-28T07:22:56.473Z,99.90
2022-09-28T07:25:31.641Z,99.90
2022-09-28T07:28:28.729Z,99.90
2022-09-28T07:31:29.978Z,99.90
2022-09-28T07:34:23.197Z,99.90
2022-09-28T07:37:11.516Z,99.90
2022-09-28T07:40:05.373Z,99.90
2022-09-28T07:42:41.719Z,99.90
2022-09-28T07:45:16.409Z,99.90
2022-09-28T07:47:51.151Z,99.90
2022-09-28T07:50:42.948Z,99.90
2022-09-28T07:53:23.390Z,99.90
2022-09-28T07:56:17.409Z,99.90
2022-09-28T07:59:25.736Z,99.90
2022-09-28T08:02:25.898Z,99.90
2022-09-28T08:05:01.334Z,99.90
2022-09-28T08:07:34.862Z,99.90
2022-09-28T08:10:11.244Z,99.90
2022-09-28T08:13:04.765Z,99.90
2022-09-28T08:16:05.954Z,99.90
2022-09-28T08:18:45.330Z,99.90
2022-09-28T08:21:43.165Z,99.90
2022-09-28T08:24:19.257Z,99.90
2022-09-28T08:26:54.874Z,99.90
2022-09-28T08:29:31.972Z,99.90
2022-09-28T08:32:24.880Z,99.90
2022-09-28T08:35:18.383Z,99.90
2022-09-28T08:38:13.703Z,99.90
2022-09-28T08:41:17.708Z,99.90
2022-09-28T08:44:17.038Z,99.90
2022-09-28T08:47:33.703Z,99.90
2022-09-28T08:50:47.115Z,99.90
2022-09-28T08:53:41.885Z,99.90
2022-09-28T08:56:29.131Z,99.90
2022-09-28T08:59:03.846Z,99.90
2022-09-28T09:01:40.172Z,99.90
2022-09-28T09:04:17.801Z,99.90
2022-09-28T09:07:17.845Z,99.90
2022-09-28T09:10:05.300Z,99.90
2022-09-28T09:12:43.933Z,99.90
2022-09-28T09:15:21.546Z,99.90
2022-09-28T09:18:03.470Z,99.90
2022-09-28T09:20:57.600Z,99.90
2022-09-28T09:23:47.521Z,99.90
2022-09-28T09:26:36.033Z,99.90
2022-09-28T09:29:14.814Z,99.90
2022-09-28T09:32:03.149Z,99.90
2022-09-28T09:34:47.874Z,99.90
2022-09-28T09:37:58.465Z,99.90
2022-09-28T09:41:01.947Z,99.90
2022-09-28T09:44:05.702Z,99.70
2022-09-28T09:47:08.892Z,99.90
2022-09-28T09:49:52.551Z,99.10
2022-09-28T09:52:27.909Z,99.90
2022-09-28T09:55:03.259Z,97.60
2022-09-28T09:57:50.991Z,99.90
2022-09-28T10:00:50.059Z,97.00
2022-09-28T10:03:34.187Z,95.10
2022-09-28T10:06:18.633Z,97.20
2022-09-28T10:08:59.559Z,97.90
2022-09-28T10:11:36.164Z,96.00
2022-09-28T10:14:13.723Z,96.30
2022-09-28T10:16:58.368Z,96.40
2022-09-28T10:19:50.023Z,94.00
2022-09-28T10:23:02.104Z,92.80
2022-09-28T10:25:38.594Z,93.10
2022-09-28T10:28:15.446Z,93.80
2022-09-28T10:30:48.809Z,90.00
2022-09-28T10:33:30.743Z,90.70
2022-09-28T10:36:08.213Z,90.60
2022-09-28T10:38:48.633Z,92.20
2022-09-28T10:41:32.873Z,88.20
2022-09-28T10:44:17.597Z,90.00
2022-09-28T10:47:14.643Z,89.60
2022-09-28T10:49:50.714Z,86.60
2022-09-28T10:52:34.593Z,86.00
2022-09-28T10:55:27.997Z,90.10
2022-09-28T10:58:01.334Z,90.20
2022-09-28T11:00:44.234Z,90.10
2022-09-28T11:03:26.020Z,90.30
2022-09-28T11:06:03.736Z,90.20
2022-09-28T11:08:38.524Z,87.80
2022-09-28T11:11:14.505Z,90.70
2022-09-28T11:13:49.329Z,91.20
2022-09-28T11:16:29.868Z,90.00
2022-09-28T11:19:05.821Z,86.90
2022-09-28T11:21:46.021Z,91.10
2022-09-28T11:24:21.660Z,86.90
2022-09-28T11:26:57.603Z,84.30
2022-09-28T11:29:37.390Z,82.10
2022-09-28T11:32:42.989Z,86.50
2022-09-28T11:35:45.592Z,86.80
2022-09-28T11:38:31.908Z,87.70
2022-09-28T11:41:23.355Z,82.80
2022-09-28T11:44:05.073Z,76.00
2022-09-28T11:46:42.452Z,75.80
2022-09-28T11:49:25.757Z,76.50
2022-09-28T11:52:02.324Z,75.80
2022-09-28T11:54:41.523Z,79.90
2022-09-28T11:57:17.011Z,77.40
2022-09-28T11:59:56.686Z,78.10
2022-09-28T12:02:33.241Z,80.20
2022-09-28T12:05:18.430Z,77.90
2022-09-28T12:07:56.548Z,77.00
2022-09-28T12:11:06.508Z,75.70
2022-09-28T12:13:59.462Z,71.80
2022-09-28T12:19:31.785Z,69.00
2022-09-28T12:22:10.273Z,71.80
2022-09-28T12:24:44.987Z,66.50
2022-09-28T12:27:23.315Z,70.20
2022-09-28T12:29:59.828Z,69.60
2022-09-28T12:32:37.444Z,68.40
2022-09-28T12:35:15.154Z,66.30
2022-09-28T12:37:58.691Z,67.50
2022-09-28T12:40:39.411Z,70.50
2022-09-28T12:43:29.033Z,70.10
2022-09-28T12:46:12.314Z,70.20
2022-09-28T12:52:10.097Z,69.60
2022-09-28T12:54:54.487Z,73.10
2022-09-28T12:57:45.578Z,72.80
2022-09-28T13:00:22.260Z,71.70
2022-09-28T13:03:07.886Z,65.90
2022-09-28T13:06:01.732Z,61.60
2022-09-28T13:08:37.863Z,63.70
2022-09-28T13:11:15.808Z,65.80
2022-09-28T13:13:54.345Z,64.70
2022-09-28T13:16:31.229Z,68.10
2022-09-28T13:19:13.151Z,67.50
2022-09-28T13:21:51.392Z,73.00
2022-09-28T13:24:32.811Z,70.30
2022-09-28T13:27:10.295Z,68.70
2022-09-28T13:29:44.437Z,70.20
2022-09-28T13:32:18.650Z,68.40
2022-09-28T13:34:54.809Z,68.50
2022-09-28T13:37:28.214Z,69.80
2022-09-28T13:40:06.167Z,70.70
2022-09-28T13:43:00.430Z,74.20
2022-09-28T13:45:50.272Z,73.40
2022-09-28T13:48:25.720Z,73.00
2022-09-28T13:51:09.185Z,75.10
2022-09-28T13:53:53.528Z,73.30
2022-09-28T13:56:31.186Z,74.40
2022-09-28T13:59:05.313Z,74.20
2022-09-28T14:01:40.487Z,75.80
2022-09-28T14:04:16.862Z,77.20
2022-09-28T14:06:57.534Z,76.00
2022-09-28T14:09:51.717Z,76.30
2022-09-28T14:12:39.759Z,76.50
2022-09-28T14:15:31.628Z,79.70
2022-09-28T14:18:08.441Z,79.20
2022-09-28T14:20:48.610Z,83.10
2022-09-28T14:23:38.772Z,82.00
2022-09-28T14:26:41.627Z,84.30
2022-09-28T14:29:22.097Z,83.50
2022-09-28T14:31:56.290Z,83.90
2022-09-28T14:34:34.353Z,84.70
2022-09-28T14:37:37.202Z,84.50
2022-09-28T14:40:35.059Z,84.50
2022-09-28T14:43:24.179Z,87.80
2022-09-28T14:46:17.087Z,87.10
2022-09-28T14:48:52.724Z,89.30
2022-09-28T14:51:45.176Z,89.60
2022-09-28T14:54:20.476Z,88.20
2022-09-28T14:56:59.832Z,89.00
2022-09-28T14:59:36.314Z,89.50
2022-09-28T15:02:15.040Z,91.40
2022-09-28T15:04:50.293Z,90.70
2022-09-28T15:07:24.855Z,92.00
2022-09-28T15:09:58.825Z,90.40
2022-09-28T15:12:36.886Z,91.30
2022-09-28T15:15:21.417Z,92.20
2022-09-28T15:17:57.347Z,90.50
2022-09-28T15:20:31.506Z,91.10
2022-09-28T15:23:04.967Z,92.30
2022-09-28T15:25:38.184Z,92.40
2022-09-28T15:28:19.185Z,91.50
2022-09-28T15:30:52.887Z,91.70
2022-09-28T15:33:44.265Z,92.60
2022-09-28T15:36:19.958Z,93.60
2022-09-28T15:38:55.985Z,93.20
2022-09-28T15:41:29.714Z,93.50
2022-09-28T15:44:09.396Z,95.50
2022-09-28T15:46:44.894Z,93.90
2022-09-28T15:49:24.195Z,93.50
2022-09-28T15:51:57.390Z,94.20
2022-09-28T15:54:34.953Z,95.30
2022-09-28T15:57:29.376Z,94.60
2022-09-28T16:00:06.021Z,95.60
2022-09-28T16:03:00.404Z,95.60
2022-09-28T16:05:36.832Z,95.30
2022-09-28T16:08:21.281Z,96.10
2022-09-28T16:11:01.212Z,97.20
2022-09-28T16:13:34.988Z,97.20
2022-09-28T16:16:15.246Z,97.30
2022-09-28T16:18:49.242Z,98.80
2022-09-28T16:21:36.257Z,98.70
2022-09-28T16:24:19.973Z,99.90
2022-09-28T16:26:57.404Z,99.60
2022-09-28T16:29:35.790Z,99.90
2022-09-28T16:32:27.808Z,99.90
2022-09-28T16:35:18.643Z,99.90
2022-09-28T16:37:57.802Z,99.90
2022-09-28T16:40:32.049Z,99.90
2022-09-28T16:43:06.765Z,99.90
2022-09-28T16:45:40.093Z,99.90
2022-09-28T16:48:15.866Z,99.90
2022-09-28T16:50:50.491Z,99.90
2022-09-28T16:53:41.096Z,99.90
2022-09-28T16:56:14.575Z,99.90
2022-09-28T16:58:49.508Z,99.90
2022-09-28T17:01:23.220Z,99.90
2022-09-28T17:03:56.606Z,99.90
2022-09-28T17:06:31.399Z,99.90
2022-09-28T17:09:07.002Z,99.90
2022-09-28T17:11:40.266Z,99.90
2022-09-28T17:14:14.087Z,99.90
2022-09-28T17:17:07.387Z,99.90
2022-09-28T17:19:43.508Z,99.90
2022-09-28T17:22:18.435Z,99.90
2022-09-28T17:24:51.653Z,99.90
2022-09-28T17:27:24.847Z,99.90
2022-09-28T17:29:58.029Z,99.90
2022-09-28T17:32:32.554Z,99.90
2022-09-28T17:35:23.544Z,99.90
2022-09-28T17:37:59.506Z,99.90
2022-09-28T17:40:32.814Z,99.90
2022-09-28T17:43:06.222Z,99.90
2022-09-28T17:45:41.067Z,99.90
2022-09-28T17:48:15.841Z,99.90
2022-09-28T17:50:49.120Z,99.90
2022-09-28T17:53:23.729Z,99.90
2022-09-28T17:55:57.491Z,99.90
2022-09-28T17:58:30.742Z,99.90
2022-09-28T18:01:04.101Z,99.90
2022-09-28T18:03:38.489Z,99.90
2022-09-28T18:06:14.619Z,99.90
2022-09-28T18:08:49.424Z,99.90
2022-09-28T18:11:22.822Z,99.90
2022-09-28T18:13:56.078Z,99.90
2022-09-28T18:16:29.360Z,99.90
2022-09-28T18:19:02.761Z,99.90
2022-09-28T18:21:36.056Z,99.90
2022-09-28T18:24:10.666Z,99.90
2022-09-28T18:26:43.921Z,99.90
2022-09-28T18:29:17.984Z,99.90
2022-09-28T18:31:51.208Z,99.90
2022-09-28T18:34:24.555Z,99.90
2022-09-28T18:36:57.840Z,99.90
2022-09-28T18:39:32.503Z,99.90
2022-09-28T18:42:06.081Z,99.90
2022-09-28T18:44:39.353Z,99.90
2022-09-28T18:47:14.504Z,99.90
2022-09-28T18:49:47.802Z,99.90
2022-09-28T18:52:21.047Z,99.90
2022-09-28T18:54:55.701Z,99.90
2022-09-28T18:57:28.939Z,99.90
2022-09-28T19:00:02.970Z,99.90
2022-09-28T19:02:36.532Z,99.90
2022-09-28T19:05:09.926Z,99.90
2022-09-28T19:07:43.579Z,99.90
2022-09-28T19:10:18.378Z,99.90
2022-09-28T19:12:52.416Z,99.90
2022-09-28T19:15:25.767Z,99.90
2022-09-28T19:17:59.006Z,99.90
2022-09-28T19:20:33.601Z,99.90
2022-09-28T19:23:06.858Z,99.90
2022-09-28T19:25:41.491Z,99.90
2022-09-28T19:28:15.711Z,99.90
2022-09-28T19:30:56.413Z,99.90
2022-09-28T19:33:32.823Z,99.90
2022-09-28T19:36:06.952Z,99.90
2022-09-28T19:38:40.771Z,99.90
2022-09-28T19:41:39.492Z,99.90
2022-09-28T19:44:21.277Z,99.90
2022-09-28T19:46:55.409Z,99.90
2022-09-28T19:49:33.061Z,99.90
2022-09-28T19:52:13.166Z,99.90
2022-09-28T19:54:56.813Z,99.90
2022-09-28T19:57:32.522Z,99.90
2022-09-28T20:00:06.396Z,99.90
2022-09-28T20:02:39.905Z,99.90
2022-09-28T20:05:13.135Z,99.90
2022-09-28T20:07:46.969Z,99.90
2022-09-28T20:10:20.219Z,99.90
2022-09-28T20:12:54.818Z,99.90
2022-09-28T20:15:28.230Z,99.90
2022-09-28T20:18:01.490Z,99.90
2022-09-28T20:20:34.716Z,99.90
2022-09-28T20:23:07.932Z,99.90
2022-09-28T20:25:41.155Z,99.90
2022-09-28T20:28:16.171Z,99.90
2022-09-28T20:30:49.363Z,99.90
2022-09-28T20:33:28.749Z,99.90
2022-09-28T20:36:05.428Z,99.90
2022-09-28T20:38:40.580Z,99.90
2022-09-28T20:41:14.983Z,99.90
2022-09-28T20:43:51.967Z,99.90
2022-09-28T20:46:25.605Z,99.90
2022-09-28T20:48:59.684Z,99.90
2022-09-28T20:51:33.078Z,99.90
2022-09-28T20:54:06.411Z,99.90
2022-09-28T20:56:39.658Z,99.90
2022-09-28T20:59:14.410Z,99.90
2022-09-28T21:01:47.695Z,99.90
2022-09-28T21:04:21.334Z,99.90
2022-09-28T21:06:54.627Z,99.90
2022-09-28T21:09:30.064Z,99.90
2022-09-28T21:12:03.322Z,99.90
2022-09-28T21:14:37.934Z,99.90
2022-09-28T21:17:11.538Z,99.90
2022-09-28T21:19:44.750Z,99.90
2022-09-28T21:22:17.922Z,99.90
2022-09-28T21:24:51.154Z,99.90
2022-09-28T21:27:24.413Z,99.90
2022-09-28T21:29:59.031Z,99.90
2022-09-28T21:32:34.277Z,99.90
2022-09-28T21:35:08.033Z,99.90
2022-09-28T21:37:41.254Z,99.90
2022-09-28T21:40:14.531Z,99.90
2022-09-28T21:42:47.724Z,99.90
2022-09-28T21:45:22.307Z,99.90
2022-09-28T21:47:55.519Z,99.90
2022-09-28T21:50:28.823Z,99.90
2022-09-28T21:53:03.290Z,99.90
2022-09-28T21:55:36.511Z,99.90
2022-09-28T21:58:09.676Z,99.90
2022-09-28T22:00:44.270Z,99.90
2022-09-28T22:03:18.013Z,99.90
2022-09-28T22:05:51.663Z,99.90
2022-09-28T22:08:24.887Z,99.90
2022-09-28T22:10:59.853Z,99.90
2022-09-28T22:13:34.487Z,99.90
2022-09-28T22:16:09.536Z,99.90
2022-09-28T22:18:42.853Z,99.90
2022-09-28T22:21:16.887Z,99.90
2022-09-28T22:23:50.461Z,99.90
2022-09-28T22:26:24.791Z,99.90
2022-09-28T22:28:59.323Z,99.90
2022-09-28T22:31:34.865Z,99.90
2022-09-28T22:34:08.810Z,99.90
2022-09-28T22:36:42.126Z,99.90
2022-09-28T22:39:15.831Z,99.90
2022-09-28T22:41:49.114Z,99.90
2022-09-28T22:44:22.491Z,99.90
2022-09-28T22:46:57.110Z,99.90
2022-09-28T22:49:49.391Z,99.90
2022-09-28T22:52:22.828Z,99.90
2022-09-28T22:54:56.172Z,99.90
2022-09-28T22:57:30.340Z,99.90
2022-09-28T23:00:03.676Z,99.90
2022-09-28T23:02:38.392Z,99.90
2022-09-28T23:05:11.976Z,99.90
2022-09-28T23:07:45.345Z,99.90
2022-09-28T23:10:18.538Z,99.90
2022-09-28T23:12:54.164Z,99.90
2022-09-28T23:15:28.514Z,99.90
2022-09-28T23:18:03.406Z,99.90
2022-09-28T23:20:37.270Z,99.90
2022-09-28T23:23:10.661Z,99.90
2022-09-28T23:25:43.876Z,99.90
2022-09-28T23:28:17.255Z,99.90
2022-09-28T23:30:50.686Z,99.90
2022-09-28T23:33:25.342Z,99.90
2022-09-28T23:36:01.861Z,99.90
2022-09-28T23:38:35.101Z,99.90
2022-09-28T23:41:08.745Z,99.90
2022-09-28T23:43:41.967Z,99.90
2022-09-28T23:46:20.285Z,99.90
2022-09-28T23:48:55.418Z,99.90
2022-09-28T23:51:29.658Z,99.90
2022-09-28T23:54:05.218Z,99.90
2022-09-28T23:56:38.674Z,99.90
2022-09-28T23:59:11.929Z,99.90
